Details From LOWI - Innsbruck Kranebitten
To MKJS - Montego Bay Sangster Intl
Flight Number -
Tags Generated
Created
Modified
Stats Distance 4,566 nm / 8,457 km
Max Altitude 0 ft / 0 m
Waypoints 6
Social Downloads 0
Likes 0
Share VATSIM

Download

Looking for another format? Having issues loading an existing format? Contact us
Advertisement - Login to hide

Notes

Generated

Route

LOWI DIBEX BENAR RB408 MBJ MKJS

ID Type Via Altitude Latitude Longitude Leg Dist Tot Dist Heading (true) Name
O LOWI APT - 0 ft / 0 m 47.25883˚ 11.33091˚ - 0 nm - -
DIBEX FIX - 0 ft / 0 m 47.89028˚ 6.04611˚ 217 nm 217 nm 282° / 278° -
BENAR FIX - 0 ft / 0 m 48.25306˚ 0.74444˚ 213 nm 431 nm 278° / 274° -
RB408 FIX - 0 ft / 0 m 48.41530˚ -4.56182˚ 212 nm 643 nm 275° / 271° -
MBJ NDB - 0 ft / 0 m 18.50361˚ -77.91835˚ 3922 nm 4565 nm 270° / 224° MONTEGO BAY NDB
O MKJS APT - 0 ft / 0 m 18.49873˚ -77.92482˚ 0 nm 4566 nm 232° / 232° -

Altitude Profile

Advertisement - Login to hide

Weather


0- 5 10 15 20 25 30 35+ Temperature / ° C

Clouds and Precipitation
Forecast for 2018-05-21 12:00 UTC. Updated 3 hours ago

Ground ~20,000 ft ~40,000 ft Winds

LOWI

Details ICAO LOWI (INN)
Name Innsbruck Kranebitten
Region Austria
Timezone Europe/Vienna (UTC+2.0)
Stats Elevation 1,906 ft / 581 m (AMSL)
Location 47.260226° 11.343967°
Runways 1
Magnetic Variation 3.070° E

METAR

LOWI 211320Z 25007KT 210V290 9999 SCT070 SCT120 24/08 Q1012 NOSIG

Decode

TAF

TAF AMD LOWI 211402Z 2114/2212 27005KT 9999 FEW060 SCT100 TX23/2114Z TN11/2203Z PROB30 2114/2118 VRB15G25KT TSRA FEW050CB BKN070

Decode

Departure Runways

ID Width Length Bearing (true) Bearing (mag) Surface Threshold Offset Overrun Length
08 148 ft / 45 m 6,545 ft / 1,995 m 81.02° 77.95° Asphalt 338 ft / 103 m 0 ft / 0 m
26 148 ft / 45 m 6,545 ft / 1,995 m 261.04° 257.97° Asphalt 0 ft / 0 m 0 ft / 0 m

MKJS

Details ICAO MKJS (MBJ)
Name Sangster Intl
Region Jamaica
Timezone America/Jamaica (UTC-5.0)
Stats Elevation 6 ft / 2 m (AMSL)
Location 18.503549° -77.913698°
Runways 1
Magnetic Variation 7.005° W

METAR

MKJS 211300Z VRB02KT 9999 FEW022CB BKN038 29/23 Q1012

Decode

TAF

TAF MKJS 211115Z 2112/2212 07015KT 9999 FEW022 BKN032 TEMPO 2116/2122 6000 TSRA BKN018 BKN020CB BECMG 2201/2203 14005KT SCT020 FEW022CB

Decode

Destination Runways

ID Width Length Bearing (true) Bearing (mag) Surface Threshold Offset Overrun Length
07 161 ft / 49 m 8,495 ft / 2,589 m 65.37° 72.38° Asphalt 220 ft / 67 m 312 ft / 95 m
25 161 ft / 49 m 8,495 ft / 2,589 m 245.37° 252.38° Asphalt 577 ft / 176 m 200 ft / 61 m

Approach Navaids

Runway Type Ident Frequency Range Bearing (true) Bearing (mag) Slope Elevation
07 Localiser ISIA 109.50 MHz 18 nm / 33 km 65.41° 72.41° - 4 ft / 1 m (AMSL)
07 Glidescope ISIA 109.50 MHz 10 nm / 19 km 65.37° 72.38° 3.00° 4 ft / 1 m (AMSL)